createdAt,value
2022-09-29T00:02:07.663Z,92412.50
2022-09-29T00:04:34.142Z,92392.56
2022-09-29T00:07:00.547Z,92392.50
2022-09-29T00:09:27.010Z,92375.34
2022-09-29T00:11:57.039Z,92414.66
2022-09-29T00:14:23.921Z,92395.59
2022-09-29T00:16:50.682Z,92421.03
2022-09-29T00:19:17.300Z,92402.31
2022-09-29T00:21:43.685Z,92398.03
2022-09-29T00:24:10.155Z,92400.78
2022-09-29T00:26:36.635Z,92385.53
2022-09-29T00:29:04.322Z,92419.41
2022-09-29T00:31:33.113Z,92415.34
2022-09-29T00:33:59.659Z,92404.38
2022-09-29T00:36:30.333Z,92384.19
2022-09-29T00:38:58.287Z,92410.50
2022-09-29T00:41:30.668Z,92421.28
2022-09-29T00:44:26.610Z,92410.28
2022-09-29T00:46:56.396Z,92402.84
2022-09-29T00:49:42.360Z,92392.72
2022-09-29T00:52:27.300Z,92392.91
2022-09-29T00:54:59.093Z,92396.81
2022-09-29T00:57:35.672Z,92373.28
2022-09-29T01:00:08.331Z,92372.56
2022-09-29T01:02:40.531Z,92414.41
2022-09-29T01:05:12.999Z,92400.88
2022-09-29T01:07:40.767Z,92402.44
2022-09-29T01:10:08.174Z,92399.25
2022-09-29T01:12:35.636Z,92365.78
2022-09-29T01:15:02.296Z,92375.31
2022-09-29T01:17:28.920Z,92367.25
2022-09-29T01:20:15.523Z,92359.66
2022-09-29T01:23:10.990Z,92378.78
2022-09-29T01:25:56.143Z,92385.59
2022-09-29T01:28:39.840Z,92362.41
2022-09-29T01:31:31.661Z,92373.31
2022-09-29T01:34:24.913Z,92364.09
2022-09-29T01:36:54.249Z,92388.44
2022-09-29T01:39:35.396Z,92306.75
2022-09-29T01:42:08.450Z,92367.69
2022-09-29T01:44:44.969Z,92359.31
2022-09-29T01:47:18.204Z,92366.47
2022-09-29T01:49:50.698Z,92347.31
2022-09-29T01:52:25.021Z,92358.00
2022-09-29T01:55:00.201Z,92367.56
2022-09-29T01:57:32.767Z,92376.38
2022-09-29T02:00:17.524Z,92349.72
2022-09-29T02:03:09.792Z,92368.03
2022-09-29T02:05:49.067Z,92360.09
2022-09-29T02:08:32.813Z,92363.31
2022-09-29T02:11:03.886Z,92364.94
2022-09-29T02:13:50.658Z,92345.25
2022-09-29T02:16:21.522Z,92343.78
2022-09-29T02:18:58.515Z,92370.00
2022-09-29T02:21:27.266Z,92360.47
2022-09-29T02:23:54.333Z,92343.94
2022-09-29T02:26:21.296Z,92370.00
2022-09-29T02:28:48.067Z,92334.66
2022-09-29T02:31:14.840Z,92371.97
2022-09-29T02:33:41.347Z,92329.72
2022-09-29T02:36:35.771Z,92351.25
2022-09-29T02:39:29.690Z,92353.56
2022-09-29T02:42:19.705Z,92318.06
2022-09-29T02:45:18.684Z,92343.03
2022-09-29T02:48:03.884Z,92349.94
2022-09-29T02:50:57.191Z,92355.25
2022-09-29T02:53:57.592Z,92339.81
2022-09-29T02:56:36.339Z,92361.94
2022-09-29T02:59:11.844Z,92357.09
2022-09-29T03:01:52.263Z,92331.31
2022-09-29T03:04:20.439Z,92328.09
2022-09-29T03:06:47.030Z,92358.19
2022-09-29T03:09:13.495Z,92335.53
2022-09-29T03:11:40.040Z,92346.63
2022-09-29T03:14:06.662Z,92328.88
2022-09-29T03:16:33.996Z,92343.59
2022-09-29T03:19:00.498Z,92334.50
2022-09-29T03:21:27.476Z,92345.06
2022-09-29T03:23:57.454Z,92309.13
2022-09-29T03:26:24.551Z,92323.09
2022-09-29T03:28:52.092Z,92325.69
2022-09-29T03:31:18.886Z,92338.69
2022-09-29T03:33:45.311Z,92302.59
2022-09-29T03:36:11.981Z,92343.19
2022-09-29T03:38:38.703Z,92350.81
2022-09-29T03:41:06.336Z,92346.47
2022-09-29T03:43:33.111Z,92329.72
2022-09-29T03:45:59.607Z,92305.13
2022-09-29T03:48:30.226Z,92338.13
2022-09-29T03:50:57.584Z,92324.94
2022-09-29T03:53:24.065Z,92329.16
2022-09-29T03:55:51.549Z,92343.59
2022-09-29T03:58:18.520Z,92318.91
2022-09-29T04:00:46.429Z,92340.56
2022-09-29T04:03:12.831Z,92337.97
2022-09-29T04:05:40.638Z,92342.75
2022-09-29T04:08:08.016Z,92325.63
2022-09-29T04:10:37.903Z,92322.81
2022-09-29T04:13:06.012Z,92349.31
2022-09-29T04:15:33.500Z,92310.97
2022-09-29T04:18:03.421Z,92326.13
2022-09-29T04:20:30.906Z,92325.41
2022-09-29T04:22:57.297Z,92320.28
2022-09-29T04:25:24.191Z,92333.00
2022-09-29T04:27:50.832Z,92327.41
2022-09-29T04:30:18.519Z,92338.91
2022-09-29T04:32:44.930Z,92348.06
2022-09-29T04:35:11.394Z,92316.16
2022-09-29T04:37:37.804Z,92314.94
2022-09-29T04:40:05.335Z,92338.41
2022-09-29T04:42:31.800Z,92337.97
2022-09-29T04:44:59.326Z,92315.66
2022-09-29T04:47:25.816Z,92329.47
2022-09-29T04:49:52.214Z,92333.06
2022-09-29T04:52:18.751Z,92305.28
2022-09-29T04:54:45.123Z,92322.81
2022-09-29T04:57:11.677Z,92306.94
2022-09-29T04:59:38.163Z,92304.91
2022-09-29T05:02:07.012Z,92329.97
2022-09-29T05:04:33.406Z,92280.66
2022-09-29T05:06:59.793Z,92298.13
2022-09-29T05:09:29.917Z,92286.59
2022-09-29T05:11:58.987Z,92288.31
2022-09-29T05:14:25.431Z,92307.38
2022-09-29T05:16:54.547Z,92303.31
2022-09-29T05:19:21.425Z,92299.44
2022-09-29T05:21:47.963Z,92285.53
2022-09-29T05:24:14.359Z,92308.00
2022-09-29T05:26:40.988Z,92302.81
2022-09-29T05:29:07.640Z,92320.09
2022-09-29T05:31:34.137Z,92311.81
2022-09-29T05:34:00.546Z,92288.31
2022-09-29T05:36:28.043Z,92317.34
2022-09-29T05:39:00.750Z,92314.19
2022-09-29T05:41:27.199Z,92308.22
2022-09-29T05:43:57.222Z,92329.63
2022-09-29T05:46:25.636Z,92318.47
2022-09-29T05:48:52.062Z,92335.38
2022-09-29T05:51:23.005Z,92332.34
2022-09-29T05:53:50.418Z,92305.22
2022-09-29T05:56:22.460Z,92339.56
2022-09-29T05:58:49.160Z,92303.78
2022-09-29T06:01:18.739Z,92336.97
2022-09-29T06:03:46.279Z,92337.69
2022-09-29T06:06:18.675Z,92310.56
2022-09-29T06:08:47.125Z,92312.56
2022-09-29T06:11:23.440Z,92326.00
2022-09-29T06:13:53.036Z,92339.13
2022-09-29T06:16:22.731Z,92315.19
2022-09-29T06:18:49.842Z,92340.09
2022-09-29T06:21:23.794Z,92303.41
2022-09-29T06:23:51.264Z,92328.75
2022-09-29T06:26:23.617Z,92333.94
2022-09-29T06:28:51.064Z,92316.91
2022-09-29T06:31:20.948Z,92330.34
2022-09-29T06:33:47.770Z,92342.88
2022-09-29T06:36:46.625Z,92333.34
2022-09-29T06:39:14.628Z,92332.56
2022-09-29T06:41:48.533Z,92331.78
2022-09-29T06:44:18.276Z,92311.13
2022-09-29T06:46:44.802Z,92328.88
2022-09-29T06:49:13.019Z,92312.72
2022-09-29T06:51:45.936Z,92323.47
2022-09-29T06:54:14.754Z,92311.13
2022-09-29T06:56:41.195Z,92317.81
2022-09-29T06:59:07.724Z,92312.72
2022-09-29T07:01:35.283Z,92338.84
2022-09-29T07:04:03.735Z,92333.78
2022-09-29T07:06:30.799Z,92335.34
2022-09-29T07:08:58.978Z,92330.13
2022-09-29T07:11:29.748Z,92311.94
2022-09-29T07:13:57.164Z,92328.78
2022-09-29T07:16:24.814Z,92341.94
2022-09-29T07:18:52.360Z,92341.22
2022-09-29T07:21:22.040Z,92335.44
2022-09-29T07:23:48.798Z,92325.78
2022-09-29T07:26:16.716Z,92342.09
2022-09-29T07:28:44.345Z,92315.13
2022-09-29T07:31:15.707Z,92348.47
2022-09-29T07:33:43.844Z,92314.22
2022-09-29T07:36:15.315Z,92327.28
2022-09-29T07:38:42.353Z,92331.97
2022-09-29T07:41:11.672Z,92358.97
2022-09-29T07:43:39.032Z,92359.97
2022-09-29T07:46:06.824Z,92339.44
2022-09-29T07:48:39.116Z,92343.34
2022-09-29T07:51:13.839Z,92352.84
2022-09-29T07:53:41.545Z,92342.63
2022-09-29T07:56:14.556Z,92374.09
2022-09-29T07:58:42.112Z,92371.97
2022-09-29T08:01:12.685Z,92362.56
2022-09-29T08:03:41.030Z,92359.31
2022-09-29T08:06:08.391Z,92380.50
2022-09-29T08:08:39.096Z,92345.97
2022-09-29T08:11:21.504Z,92382.56
2022-09-29T08:13:53.276Z,92358.31
2022-09-29T08:16:20.768Z,92392.78
2022-09-29T08:18:47.404Z,92367.38
2022-09-29T08:21:15.217Z,92374.06
2022-09-29T08:23:43.478Z,92399.91
2022-09-29T08:26:14.209Z,92384.59
2022-09-29T08:28:42.317Z,92403.66
2022-09-29T08:31:14.278Z,92396.84
2022-09-29T08:33:40.896Z,92368.84
2022-09-29T08:36:14.563Z,92368.34
2022-09-29T08:38:43.215Z,92387.66
2022-09-29T08:41:29.707Z,92409.44
2022-09-29T08:44:05.094Z,92406.72
2022-09-29T08:46:39.580Z,92400.91
2022-09-29T08:49:32.563Z,92400.47
2022-09-29T08:52:16.122Z,92422.13
2022-09-29T08:54:48.615Z,92401.28
2022-09-29T08:57:21.028Z,92431.06
2022-09-29T08:59:54.329Z,92415.91
2022-09-29T09:02:40.252Z,92434.06
2022-09-29T09:05:17.520Z,92390.75
2022-09-29T09:08:04.128Z,92432.00
2022-09-29T09:10:31.075Z,92429.84
2022-09-29T09:13:18.235Z,92436.84
2022-09-29T09:16:00.305Z,92437.97
2022-09-29T09:18:50.876Z,92445.78
2022-09-29T09:21:33.087Z,92419.09
2022-09-29T09:24:06.525Z,92414.59
2022-09-29T09:26:40.147Z,92407.22
2022-09-29T09:29:20.620Z,92435.47
2022-09-29T09:32:04.191Z,92437.63
2022-09-29T09:34:56.632Z,92427.31
2022-09-29T09:37:31.839Z,92437.75
2022-09-29T09:40:14.886Z,92407.84
2022-09-29T09:42:45.475Z,92439.91
2022-09-29T09:45:26.054Z,92425.50
2022-09-29T09:48:01.353Z,92440.59
2022-09-29T09:50:28.400Z,92420.75
2022-09-29T09:53:13.190Z,92438.00
2022-09-29T09:55:42.466Z,92443.31
2022-09-29T09:58:21.843Z,92415.06
2022-09-29T10:00:54.566Z,92421.44
2022-09-29T10:03:21.103Z,92418.38
2022-09-29T10:05:49.053Z,92410.41
2022-09-29T10:08:38.222Z,92447.47
2022-09-29T10:11:21.599Z,92428.78
2022-09-29T10:13:50.358Z,92450.78
2022-09-29T10:16:23.985Z,92432.75
2022-09-29T10:18:52.679Z,92451.59
2022-09-29T10:21:36.126Z,92453.16
2022-09-29T10:24:04.280Z,92454.50
2022-09-29T10:26:43.321Z,92447.03
2022-09-29T10:29:39.473Z,92456.13
2022-09-29T10:32:22.767Z,92457.38
2022-09-29T10:34:54.868Z,92462.03
2022-09-29T10:37:21.179Z,92466.09
2022-09-29T10:39:52.867Z,92467.69
2022-09-29T10:42:32.258Z,92465.31
2022-09-29T10:45:12.450Z,92464.94
2022-09-29T10:47:38.825Z,92440.00
2022-09-29T10:50:08.261Z,92478.34
2022-09-29T10:52:36.058Z,92482.41
2022-09-29T10:55:06.492Z,92442.06
2022-09-29T10:57:35.225Z,92463.94
2022-09-29T11:00:02.736Z,92432.53
2022-09-29T11:02:47.424Z,92464.72
2022-09-29T11:05:23.523Z,92464.28
2022-09-29T11:07:52.322Z,92463.50
2022-09-29T11:10:34.072Z,92462.13
2022-09-29T11:13:20.366Z,92484.47
2022-09-29T11:15:46.747Z,92465.88
2022-09-29T11:18:29.196Z,92454.41
2022-09-29T11:21:08.806Z,92471.31
2022-09-29T11:24:03.932Z,92474.22
2022-09-29T11:26:43.935Z,92457.75
2022-09-29T11:29:21.630Z,92467.00
2022-09-29T11:31:48.085Z,92495.28
2022-09-29T11:34:49.835Z,92489.56
2022-09-29T11:37:39.763Z,92460.66
2022-09-29T11:40:25.470Z,92487.88
2022-09-29T11:43:01.715Z,92490.34
2022-09-29T11:45:46.495Z,92486.28
2022-09-29T11:48:34.792Z,92481.88
2022-09-29T11:51:05.780Z,92487.09
2022-09-29T11:54:00.837Z,92469.88
2022-09-29T11:57:01.219Z,92483.56
2022-09-29T11:59:30.599Z,92481.22
2022-09-29T12:02:33.399Z,92487.31
2022-09-29T12:05:05.565Z,92487.59
2022-09-29T12:07:47.082Z,92489.16
2022-09-29T12:10:27.655Z,92481.94
2022-09-29T12:12:57.064Z,92490.53
2022-09-29T12:15:42.145Z,92477.63
2022-09-29T12:18:24.035Z,92470.16
2022-09-29T12:20:54.506Z,92491.13
2022-09-29T12:23:25.928Z,92477.19
2022-09-29T12:25:59.076Z,92488.44
2022-09-29T12:28:32.239Z,92475.16
2022-09-29T12:31:06.140Z,92464.03
2022-09-29T12:33:34.735Z,92496.25
2022-09-29T12:36:40.293Z,92490.59
2022-09-29T12:39:26.072Z,92484.91
2022-09-29T12:42:02.570Z,92472.44
2022-09-29T12:44:38.507Z,92503.75
2022-09-29T12:47:13.389Z,92470.03
2022-09-29T12:50:00.048Z,92497.84
2022-09-29T12:52:34.085Z,92505.78
2022-09-29T12:55:08.384Z,92478.13
2022-09-29T12:57:45.398Z,92491.03
2022-09-29T13:00:18.910Z,92503.75
2022-09-29T13:03:09.972Z,92497.97
2022-09-29T13:06:09.812Z,92499.19
2022-09-29T13:08:56.629Z,92496.94
2022-09-29T13:11:50.812Z,92503.63
2022-09-29T13:14:42.098Z,92504.19
2022-09-29T13:17:29.301Z,92496.94
2022-09-29T13:20:28.706Z,92494.47
2022-09-29T13:23:30.032Z,92501.81
2022-09-29T13:26:31.304Z,92503.53
2022-09-29T13:29:03.753Z,92509.63
2022-09-29T13:31:39.103Z,92505.31
2022-09-29T13:34:07.212Z,92483.03
2022-09-29T13:36:44.305Z,92486.69
2022-09-29T13:39:31.218Z,92512.00
2022-09-29T13:42:19.499Z,92520.72
2022-09-29T13:45:20.702Z,92513.03
2022-09-29T13:47:50.180Z,92509.63
2022-09-29T13:50:47.699Z,92507.63
2022-09-29T13:53:25.388Z,92521.88
2022-09-29T13:55:53.514Z,92518.50
2022-09-29T13:58:29.671Z,92499.69
2022-09-29T14:01:09.154Z,92519.63
2022-09-29T14:03:42.192Z,92489.44
2022-09-29T14:06:40.084Z,92515.88
2022-09-29T14:09:14.015Z,92478.81
2022-09-29T14:11:47.638Z,92484.38
2022-09-29T14:14:21.295Z,92516.31
2022-09-29T14:16:57.700Z,92499.56
2022-09-29T14:19:46.621Z,92530.75
2022-09-29T14:22:31.422Z,92534.47
2022-09-29T14:25:10.494Z,92534.13
2022-09-29T14:27:49.123Z,92537.34
2022-09-29T14:30:35.968Z,92499.44
2022-09-29T14:33:04.877Z,92533.88
2022-09-29T14:35:39.843Z,92539.38
2022-09-29T14:38:20.668Z,92539.94
2022-09-29T14:41:19.103Z,92541.19
2022-09-29T14:43:55.124Z,92528.94
2022-09-29T14:47:02.056Z,92549.47
2022-09-29T14:50:14.383Z,92553.00
2022-09-29T14:52:58.773Z,92524.50
2022-09-29T14:55:37.522Z,92560.81
2022-09-29T14:58:33.928Z,92527.22
2022-09-29T15:01:12.359Z,92559.91
2022-09-29T15:03:50.998Z,92552.75
2022-09-29T15:06:20.297Z,92565.91
2022-09-29T15:09:18.344Z,92562.72
2022-09-29T15:11:50.326Z,92573.88
2022-09-29T15:14:24.687Z,92568.16
2022-09-29T15:17:12.383Z,92568.16
2022-09-29T15:19:55.542Z,92565.00
2022-09-29T15:22:41.711Z,92569.09
2022-09-29T15:25:29.749Z,92573.72
2022-09-29T15:28:04.167Z,92555.25
2022-09-29T15:30:31.724Z,92560.56
2022-09-29T15:33:16.512Z,92570.91
2022-09-29T15:35:44.703Z,92543.19
2022-09-29T15:38:11.002Z,92582.22
2022-09-29T15:40:37.528Z,92565.78
2022-09-29T15:43:21.406Z,92556.81
2022-09-29T15:46:19.801Z,92578.38
2022-09-29T15:49:19.932Z,92572.31
2022-09-29T15:52:02.855Z,92571.50
2022-09-29T15:57:26.431Z,92571.22
2022-09-29T15:59:55.682Z,92582.03
2022-09-29T16:02:30.429Z,92588.03
2022-09-29T16:05:01.640Z,92580.50
2022-09-29T16:07:34.585Z,92585.13
2022-09-29T16:10:23.075Z,92603.59
2022-09-29T16:12:55.652Z,92576.19
2022-09-29T16:15:26.869Z,92605.97
2022-09-29T16:17:53.828Z,92596.50
2022-09-29T16:20:28.912Z,92577.75
2022-09-29T16:22:55.917Z,92592.50
2022-09-29T16:25:28.352Z,92608.72
2022-09-29T16:27:57.352Z,92592.81
2022-09-29T16:30:25.354Z,92554.16
2022-09-29T16:33:13.804Z,92605.97
2022-09-29T16:35:54.419Z,92587.22
2022-09-29T16:38:39.901Z,92614.84
2022-09-29T16:41:17.907Z,92605.75
2022-09-29T16:43:45.353Z,92611.28
2022-09-29T16:46:20.631Z,92614.44
2022-09-29T16:48:49.323Z,92609.66
2022-09-29T16:51:38.113Z,92610.84
2022-09-29T16:54:06.338Z,92622.41
2022-09-29T16:56:35.087Z,92610.56
2022-09-29T16:59:22.830Z,92600.56
2022-09-29T17:01:50.429Z,92605.03
2022-09-29T17:04:17.088Z,92594.34
2022-09-29T17:06:48.226Z,92632.97
2022-09-29T17:09:19.539Z,92631.38
2022-09-29T17:11:49.500Z,92625.38
2022-09-29T17:14:18.342Z,92625.38
2022-09-29T17:16:45.369Z,92625.00
2022-09-29T17:19:12.482Z,92638.16
2022-09-29T17:21:40.037Z,92659.75
2022-09-29T17:24:06.468Z,92658.63
2022-09-29T17:27:00.884Z,92658.13
2022-09-29T17:29:27.475Z,92642.91
2022-09-29T17:31:53.911Z,92668.41
2022-09-29T17:34:28.781Z,92661.59
2022-09-29T17:37:02.035Z,92658.41
2022-09-29T17:39:29.655Z,92648.09
2022-09-29T17:41:58.942Z,92654.56
2022-09-29T17:44:27.034Z,92649.34
2022-09-29T17:46:57.393Z,92661.31
2022-09-29T17:49:43.857Z,92683.69
2022-09-29T17:52:15.020Z,92629.44
2022-09-29T17:54:41.800Z,92666.22
2022-09-29T17:57:20.439Z,92644.88
2022-09-29T17:59:47.181Z,92636.41
2022-09-29T18:02:14.159Z,92674.31
2022-09-29T18:04:48.402Z,92654.84
2022-09-29T18:07:16.296Z,92658.00
2022-09-29T18:09:43.074Z,92645.13
2022-09-29T18:12:09.725Z,92653.94
2022-09-29T18:14:36.876Z,92645.97
2022-09-29T18:17:05.744Z,92686.94
2022-09-29T18:19:40.018Z,92669.41
2022-09-29T18:22:07.930Z,92686.22
2022-09-29T18:24:34.831Z,92675.06
2022-09-29T18:27:01.284Z,92647.56
2022-09-29T18:29:27.748Z,92665.94
2022-09-29T18:31:56.191Z,92659.44
2022-09-29T18:34:23.334Z,92693.59
2022-09-29T18:44:55.632Z,92674.94
2022-09-29T18:47:22.632Z,92703.41
2022-09-29T18:49:49.082Z,92692.09
2022-09-29T18:52:15.450Z,92698.88
2022-09-29T18:54:41.846Z,92695.13
2022-09-29T18:57:13.681Z,92699.31
2022-09-29T18:59:40.048Z,92682.81
2022-09-29T19:02:12.350Z,92687.03
2022-09-29T19:04:39.540Z,92711.84
2022-09-29T19:07:08.112Z,92709.84
2022-09-29T19:09:34.715Z,92703.50
2022-09-29T19:12:01.399Z,92713.84
2022-09-29T19:14:34.139Z,92702.72
2022-09-29T19:17:00.524Z,92714.72
2022-09-29T19:19:26.964Z,92700.78
2022-09-29T19:21:53.356Z,92696.44
2022-09-29T19:24:22.389Z,92688.03
2022-09-29T19:26:50.704Z,92691.22
2022-09-29T19:29:17.204Z,92691.56
2022-09-29T19:31:43.723Z,92695.91
2022-09-29T19:34:11.623Z,92708.22
2022-09-29T19:36:39.149Z,92719.88
2022-09-29T19:39:05.564Z,92734.66
2022-09-29T19:41:31.933Z,92718.75
2022-09-29T19:43:59.857Z,92715.56
2022-09-29T19:46:26.307Z,92676.13
2022-09-29T19:48:52.771Z,92721.19
2022-09-29T19:51:38.846Z,92725.19
2022-09-29T19:54:10.800Z,92753.91
2022-09-29T19:56:43.802Z,92753.13
2022-09-29T19:59:14.128Z,92742.00
2022-09-29T20:01:42.728Z,92738.81
2022-09-29T20:04:09.199Z,92748.75
2022-09-29T20:06:36.577Z,92742.53
2022-09-29T20:09:04.633Z,92768.69
2022-09-29T20:11:33.446Z,92756.34
2022-09-29T20:14:03.184Z,92763.91
2022-09-29T20:16:35.384Z,92763.47
2022-09-29T20:19:02.218Z,92755.06
2022-09-29T20:21:29.111Z,92775.81
2022-09-29T20:23:55.559Z,92778.22
2022-09-29T20:26:25.162Z,92744.25
2022-09-29T20:28:52.715Z,92784.94
2022-09-29T20:31:24.442Z,92765.88
2022-09-29T20:33:51.660Z,92792.69
2022-09-29T20:36:18.156Z,92785.88
2022-09-29T20:38:47.409Z,92767.19
2022-09-29T20:41:15.342Z,92767.19
2022-09-29T20:43:45.074Z,92790.34
2022-09-29T20:46:13.653Z,92770.34
2022-09-29T20:48:41.525Z,92808.22
2022-09-29T20:51:16.142Z,92807.88
2022-09-29T20:53:53.036Z,92800.34
2022-09-29T20:56:19.804Z,92810.38
2022-09-29T20:58:49.227Z,92809.97
2022-09-29T21:01:32.266Z,92805.16
2022-09-29T21:04:05.540Z,92818.38
2022-09-29T21:06:34.948Z,92818.38
2022-09-29T21:09:03.303Z,92826.34
2022-09-29T21:11:37.958Z,92757.78
2022-09-29T21:14:08.291Z,92837.91
2022-09-29T21:16:36.202Z,92838.28
2022-09-29T21:19:03.707Z,92833.13
2022-09-29T21:21:30.407Z,92849.53
2022-09-29T21:23:56.795Z,92835.97
2022-09-29T21:26:24.529Z,92850.38
2022-09-29T21:28:54.197Z,92852.38
2022-09-29T21:31:23.306Z,92847.59
2022-09-29T21:34:02.404Z,92831.41
2022-09-29T21:36:30.860Z,92850.75
2022-09-29T21:39:02.008Z,92841.19
2022-09-29T21:41:33.075Z,92853.53
2022-09-29T21:44:02.073Z,92818.44
2022-09-29T21:46:31.255Z,92820.03
2022-09-29T21:49:02.503Z,92855.56
2022-09-29T21:51:31.308Z,92847.25
2022-09-29T21:54:01.291Z,92867.66
2022-09-29T21:56:29.996Z,92862.06
2022-09-29T21:58:56.960Z,92847.69
2022-09-29T22:01:24.162Z,92870.66
2022-09-29T22:03:52.046Z,92848.47
2022-09-29T22:06:23.718Z,92839.47
2022-09-29T22:08:51.081Z,92861.84
2022-09-29T22:11:23.928Z,92867.81
2022-09-29T22:13:56.479Z,92863.25
2022-09-29T22:16:25.906Z,92865.25
2022-09-29T22:19:18.293Z,92839.72
2022-09-29T22:21:40.434Z,92851.31
2022-09-29T22:24:06.947Z,92841.66
2022-09-29T22:26:33.497Z,92844.81
2022-09-29T22:29:01.656Z,92851.19
2022-09-29T22:31:29.392Z,92843.28
2022-09-29T22:33:59.840Z,92837.75
2022-09-29T22:36:29.452Z,92855.91
2022-09-29T22:38:56.342Z,92868.09
2022-09-29T22:41:24.038Z,92838.56
2022-09-29T22:43:54.963Z,92859.34
2022-09-29T22:46:23.881Z,92873.94
2022-09-29T22:48:50.391Z,92877.16
2022-09-29T22:51:17.058Z,92866.00
2022-09-29T22:53:43.450Z,92865.78
2022-09-29T22:56:16.721Z,92871.34
2022-09-29T22:58:43.205Z,92852.97
2022-09-29T23:01:13.591Z,92883.97
2022-09-29T23:03:41.669Z,92884.38
2022-09-29T23:06:09.063Z,92876.19
2022-09-29T23:08:36.055Z,92860.03
2022-09-29T23:11:05.507Z,92881.38
2022-09-29T23:13:36.974Z,92847.88
2022-09-29T23:16:11.953Z,92878.59
2022-09-29T23:18:44.044Z,92859.06
2022-09-29T23:21:12.799Z,92870.84
2022-09-29T23:23:39.226Z,92872.84
2022-09-29T23:26:05.761Z,92820.75
2022-09-29T23:28:32.173Z,92863.88
2022-09-29T23:31:03.686Z,92863.47
2022-09-29T23:33:30.217Z,92867.25
2022-09-29T23:36:11.179Z,92869.66
2022-09-29T23:39:01.815Z,92842.16
2022-09-29T23:41:30.085Z,92875.13
2022-09-29T23:44:04.293Z,92860.75
2022-09-29T23:46:32.406Z,92853.09
2022-09-29T23:49:08.854Z,92885.88
2022-09-29T23:51:36.547Z,92885.06
2022-09-29T23:54:04.886Z,92869.47
2022-09-29T23:56:31.611Z,92869.47
2022-09-29T23:58:57.994Z,92887.84
